sensor_id;sensor_type;location;lat;lon;timestamp;P1;durP1;ratioP1;P2;durP2;ratioP2
26040;SDS011;13816;53.628;9.950;2023-07-31T00:00:39;11.43;;;2.70;;
26040;SDS011;13816;53.628;9.950;2023-07-31T00:03:07;10.40;;;3.07;;
26040;SDS011;13816;53.628;9.950;2023-07-31T00:05:34;7.43;;;2.47;;
26040;SDS011;13816;53.628;9.950;2023-07-31T00:08:02;7.67;;;2.70;;
26040;SDS011;13816;53.628;9.950;2023-07-31T00:10:29;6.10;;;2.70;;
26040;SDS011;13816;53.628;9.950;2023-07-31T00:12:56;11.80;;;3.07;;
26040;SDS011;13816;53.628;9.950;2023-07-31T00:15:24;11.20;;;3.40;;
26040;SDS011;13816;53.628;9.950;2023-07-31T00:17:51;14.20;;;2.70;;
26040;SDS011;13816;53.628;9.950;2023-07-31T00:20:19;8.13;;;3.17;;
26040;SDS011;13816;53.628;9.950;2023-07-31T00:22:46;10.53;;;2.70;;
26040;SDS011;13816;53.628;9.950;2023-07-31T00:25:13;10.40;;;2.73;;
26040;SDS011;13816;53.628;9.950;2023-07-31T00:27:41;7.53;;;2.53;;
26040;SDS011;13816;53.628;9.950;2023-07-31T00:30:10;8.53;;;2.70;;
26040;SDS011;13816;53.628;9.950;2023-07-31T00:32:38;6.70;;;2.73;;
26040;SDS011;13816;53.628;9.950;2023-07-31T00:35:05;7.33;;;2.80;;
26040;SDS011;13816;53.628;9.950;2023-07-31T00:37:33;8.40;;;2.90;;
26040;SDS011;13816;53.628;9.950;2023-07-31T00:40:01;8.50;;;2.93;;
26040;SDS011;13816;53.628;9.950;2023-07-31T00:42:30;6.10;;;2.50;;
26040;SDS011;13816;53.628;9.950;2023-07-31T00:44:57;15.63;;;3.10;;
26040;SDS011;13816;53.628;9.950;2023-07-31T00:47:24;9.03;;;2.70;;
26040;SDS011;13816;53.628;9.950;2023-07-31T00:49:52;6.83;;;2.43;;
26040;SDS011;13816;53.628;9.950;2023-07-31T00:52:19;9.10;;;2.77;;
26040;SDS011;13816;53.628;9.950;2023-07-31T00:54:48;8.43;;;2.53;;
26040;SDS011;13816;53.628;9.950;2023-07-31T00:57:16;10.50;;;3.20;;
26040;SDS011;13816;53.628;9.950;2023-07-31T00:59:43;11.17;;;2.77;;
26040;SDS011;13816;53.628;9.950;2023-07-31T01:02:11;10.43;;;3.00;;
26040;SDS011;13816;53.628;9.950;2023-07-31T01:04:38;10.80;;;3.40;;
26040;SDS011;13816;53.628;9.950;2023-07-31T01:07:09;8.70;;;2.67;;
26040;SDS011;13816;53.628;9.950;2023-07-31T01:09:45;9.50;;;2.90;;
26040;SDS011;13816;53.628;9.950;2023-07-31T01:12:16;8.60;;;2.60;;
26040;SDS011;13816;53.628;9.950;2023-07-31T01:17:30;10.50;;;2.73;;
26040;SDS011;13816;53.628;9.950;2023-07-31T01:19:59;11.20;;;2.90;;
26040;SDS011;13816;53.628;9.950;2023-07-31T01:22:30;16.70;;;3.23;;
26040;SDS011;13816;53.628;9.950;2023-07-31T01:28:04;13.93;;;3.03;;
26040;SDS011;13816;53.628;9.950;2023-07-31T01:30:33;9.30;;;3.30;;
26040;SDS011;13816;53.628;9.950;2023-07-31T01:33:02;11.00;;;3.33;;
26040;SDS011;13816;53.628;9.950;2023-07-31T01:35:36;10.20;;;3.80;;
26040;SDS011;13816;53.628;9.950;2023-07-31T01:38:04;10.83;;;3.23;;
26040;SDS011;13816;53.628;9.950;2023-07-31T01:40:31;7.87;;;2.90;;
26040;SDS011;13816;53.628;9.950;2023-07-31T01:42:59;12.40;;;2.93;;
26040;SDS011;13816;53.628;9.950;2023-07-31T01:45:28;10.57;;;3.60;;
26040;SDS011;13816;53.628;9.950;2023-07-31T01:47:55;8.07;;;2.90;;
26040;SDS011;13816;53.628;9.950;2023-07-31T01:50:22;7.43;;;3.17;;
26040;SDS011;13816;53.628;9.950;2023-07-31T01:52:50;10.10;;;3.10;;
26040;SDS011;13816;53.628;9.950;2023-07-31T01:55:17;11.90;;;3.73;;
26040;SDS011;13816;53.628;9.950;2023-07-31T01:57:45;11.73;;;3.27;;
26040;SDS011;13816;53.628;9.950;2023-07-31T02:00:12;8.87;;;4.07;;
26040;SDS011;13816;53.628;9.950;2023-07-31T02:02:40;12.93;;;4.33;;
26040;SDS011;13816;53.628;9.950;2023-07-31T02:05:07;17.93;;;4.40;;
26040;SDS011;13816;53.628;9.950;2023-07-31T02:07:36;9.93;;;3.23;;
26040;SDS011;13816;53.628;9.950;2023-07-31T02:10:04;10.80;;;3.73;;
26040;SDS011;13816;53.628;9.950;2023-07-31T02:12:31;12.43;;;3.57;;
26040;SDS011;13816;53.628;9.950;2023-07-31T02:15:01;8.33;;;3.53;;
26040;SDS011;13816;53.628;9.950;2023-07-31T02:17:29;8.40;;;3.50;;
26040;SDS011;13816;53.628;9.950;2023-07-31T02:19:57;14.47;;;3.77;;
26040;SDS011;13816;53.628;9.950;2023-07-31T02:22:24;13.67;;;3.77;;
26040;SDS011;13816;53.628;9.950;2023-07-31T02:24:51;14.47;;;3.80;;
26040;SDS011;13816;53.628;9.950;2023-07-31T02:27:21;22.80;;;4.20;;
26040;SDS011;13816;53.628;9.950;2023-07-31T02:29:50;7.90;;;3.63;;
26040;SDS011;13816;53.628;9.950;2023-07-31T02:32:17;14.83;;;4.33;;
26040;SDS011;13816;53.628;9.950;2023-07-31T02:34:45;7.50;;;3.43;;
26040;SDS011;13816;53.628;9.950;2023-07-31T02:37:12;11.93;;;3.87;;
26040;SDS011;13816;53.628;9.950;2023-07-31T02:39:40;12.50;;;4.70;;
26040;SDS011;13816;53.628;9.950;2023-07-31T02:42:18;7.47;;;3.53;;
26040;SDS011;13816;53.628;9.950;2023-07-31T02:44:49;16.80;;;4.03;;
26040;SDS011;13816;53.628;9.950;2023-07-31T02:47:43;7.30;;;3.40;;
26040;SDS011;13816;53.628;9.950;2023-07-31T02:50:19;8.87;;;4.20;;
26040;SDS011;13816;53.628;9.950;2023-07-31T02:52:50;9.80;;;4.53;;
26040;SDS011;13816;53.628;9.950;2023-07-31T02:55:30;6.53;;;3.73;;
26040;SDS011;13816;53.628;9.950;2023-07-31T02:58:12;13.60;;;3.60;;
26040;SDS011;13816;53.628;9.950;2023-07-31T03:00:49;14.97;;;3.93;;
26040;SDS011;13816;53.628;9.950;2023-07-31T03:03:23;13.93;;;4.10;;
26040;SDS011;13816;53.628;9.950;2023-07-31T03:06:11;8.47;;;4.10;;
26040;SDS011;13816;53.628;9.950;2023-07-31T03:08:51;6.90;;;3.43;;
26040;SDS011;13816;53.628;9.950;2023-07-31T03:11:50;11.47;;;4.30;;
26040;SDS011;13816;53.628;9.950;2023-07-31T03:14:35;11.90;;;3.93;;
26040;SDS011;13816;53.628;9.950;2023-07-31T03:17:10;14.03;;;4.00;;
26040;SDS011;13816;53.628;9.950;2023-07-31T03:19:39;8.53;;;3.70;;
26040;SDS011;13816;53.628;9.950;2023-07-31T03:22:16;11.87;;;3.90;;
26040;SDS011;13816;53.628;9.950;2023-07-31T03:25:11;8.97;;;3.43;;
26040;SDS011;13816;53.628;9.950;2023-07-31T03:27:52;12.87;;;3.97;;
26040;SDS011;13816;53.628;9.950;2023-07-31T03:30:56;7.90;;;3.80;;
26040;SDS011;13816;53.628;9.950;2023-07-31T03:33:37;8.00;;;3.87;;
26040;SDS011;13816;53.628;9.950;2023-07-31T03:36:56;9.67;;;3.50;;
26040;SDS011;13816;53.628;9.950;2023-07-31T03:39:38;15.67;;;4.13;;
26040;SDS011;13816;53.628;9.950;2023-07-31T03:42:16;9.13;;;3.47;;
26040;SDS011;13816;53.628;9.950;2023-07-31T03:45:03;9.37;;;3.87;;
26040;SDS011;13816;53.628;9.950;2023-07-31T03:47:42;4.50;;;3.17;;
26040;SDS011;13816;53.628;9.950;2023-07-31T03:50:38;15.07;;;3.70;;
26040;SDS011;13816;53.628;9.950;2023-07-31T03:53:24;8.23;;;3.60;;
26040;SDS011;13816;53.628;9.950;2023-07-31T03:56:03;8.13;;;3.93;;
26040;SDS011;13816;53.628;9.950;2023-07-31T03:58:48;20.43;;;4.60;;
26040;SDS011;13816;53.628;9.950;2023-07-31T04:01:19;5.50;;;2.90;;
26040;SDS011;13816;53.628;9.950;2023-07-31T04:03:47;8.80;;;3.83;;
26040;SDS011;13816;53.628;9.950;2023-07-31T04:06:31;6.77;;;4.90;;
26040;SDS011;13816;53.628;9.950;2023-07-31T04:08:59;6.83;;;3.90;;
26040;SDS011;13816;53.628;9.950;2023-07-31T04:11:29;12.03;;;3.77;;
26040;SDS011;13816;53.628;9.950;2023-07-31T04:13:56;10.30;;;3.73;;
26040;SDS011;13816;53.628;9.950;2023-07-31T04:16:24;8.83;;;3.90;;
26040;SDS011;13816;53.628;9.950;2023-07-31T04:18:52;7.60;;;3.70;;
26040;SDS011;13816;53.628;9.950;2023-07-31T04:21:19;9.57;;;4.10;;
26040;SDS011;13816;53.628;9.950;2023-07-31T04:23:47;7.37;;;3.50;;
26040;SDS011;13816;53.628;9.950;2023-07-31T04:26:21;5.53;;;3.40;;
26040;SDS011;13816;53.628;9.950;2023-07-31T04:28:48;8.50;;;3.60;;
26040;SDS011;13816;53.628;9.950;2023-07-31T04:31:18;10.53;;;3.60;;
26040;SDS011;13816;53.628;9.950;2023-07-31T04:33:46;6.90;;;3.70;;
26040;SDS011;13816;53.628;9.950;2023-07-31T04:36:13;7.57;;;3.60;;
26040;SDS011;13816;53.628;9.950;2023-07-31T04:38:59;5.03;;;3.20;;
26040;SDS011;13816;53.628;9.950;2023-07-31T04:41:27;5.97;;;3.73;;
26040;SDS011;13816;53.628;9.950;2023-07-31T04:44:02;3.87;;;3.20;;
26040;SDS011;13816;53.628;9.950;2023-07-31T04:46:39;4.37;;;2.67;;
26040;SDS011;13816;53.628;9.950;2023-07-31T04:49:10;6.40;;;3.40;;
26040;SDS011;13816;53.628;9.950;2023-07-31T04:51:37;3.80;;;3.03;;
26040;SDS011;13816;53.628;9.950;2023-07-31T04:54:05;5.83;;;3.13;;
26040;SDS011;13816;53.628;9.950;2023-07-31T04:56:32;7.07;;;3.00;;
26040;SDS011;13816;53.628;9.950;2023-07-31T04:59:00;3.23;;;2.67;;
26040;SDS011;13816;53.628;9.950;2023-07-31T05:01:27;3.60;;;3.00;;
26040;SDS011;13816;53.628;9.950;2023-07-31T05:03:55;4.67;;;2.80;;
26040;SDS011;13816;53.628;9.950;2023-07-31T05:06:22;3.30;;;2.83;;
26040;SDS011;13816;53.628;9.950;2023-07-31T05:08:50;5.83;;;3.10;;
26040;SDS011;13816;53.628;9.950;2023-07-31T05:11:27;3.63;;;2.90;;
26040;SDS011;13816;53.628;9.950;2023-07-31T05:13:54;4.07;;;2.57;;
26040;SDS011;13816;53.628;9.950;2023-07-31T05:16:24;6.53;;;2.80;;
26040;SDS011;13816;53.628;9.950;2023-07-31T05:18:55;5.33;;;2.70;;
26040;SDS011;13816;53.628;9.950;2023-07-31T05:21:22;5.73;;;3.20;;
26040;SDS011;13816;53.628;9.950;2023-07-31T05:24:26;3.63;;;2.40;;
26040;SDS011;13816;53.628;9.950;2023-07-31T05:27:25;5.23;;;2.63;;
26040;SDS011;13816;53.628;9.950;2023-07-31T05:29:53;3.47;;;2.90;;
26040;SDS011;13816;53.628;9.950;2023-07-31T05:32:27;3.37;;;3.07;;
26040;SDS011;13816;53.628;9.950;2023-07-31T05:35:07;3.63;;;2.50;;
26040;SDS011;13816;53.628;9.950;2023-07-31T05:37:57;6.50;;;3.00;;
26040;SDS011;13816;53.628;9.950;2023-07-31T05:40:36;3.30;;;3.00;;
26040;SDS011;13816;53.628;9.950;2023-07-31T05:43:20;3.40;;;2.23;;
26040;SDS011;13816;53.628;9.950;2023-07-31T05:46:06;4.40;;;2.33;;
26040;SDS011;13816;53.628;9.950;2023-07-31T05:49:08;4.30;;;2.17;;
26040;SDS011;13816;53.628;9.950;2023-07-31T05:51:44;5.83;;;2.70;;
26040;SDS011;13816;53.628;9.950;2023-07-31T05:54:12;4.37;;;2.87;;
26040;SDS011;13816;53.628;9.950;2023-07-31T05:57:17;2.93;;;1.90;;
26040;SDS011;13816;53.628;9.950;2023-07-31T05:59:57;3.47;;;2.20;;
26040;SDS011;13816;53.628;9.950;2023-07-31T06:02:38;2.90;;;2.40;;
26040;SDS011;13816;53.628;9.950;2023-07-31T06:05:27;2.33;;;2.13;;
26040;SDS011;13816;53.628;9.950;2023-07-31T06:08:17;3.20;;;2.10;;
26040;SDS011;13816;53.628;9.950;2023-07-31T06:10:45;4.37;;;2.37;;
26040;SDS011;13816;53.628;9.950;2023-07-31T06:13:27;5.10;;;2.57;;
26040;SDS011;13816;53.628;9.950;2023-07-31T06:16:01;3.03;;;2.63;;
26040;SDS011;13816;53.628;9.950;2023-07-31T06:18:54;4.57;;;2.53;;
26040;SDS011;13816;53.628;9.950;2023-07-31T06:21:25;3.30;;;2.50;;
26040;SDS011;13816;53.628;9.950;2023-07-31T06:24:10;2.13;;;1.93;;
26040;SDS011;13816;53.628;9.950;2023-07-31T06:26:53;2.77;;;2.40;;
26040;SDS011;13816;53.628;9.950;2023-07-31T06:29:29;2.43;;;2.03;;
26040;SDS011;13816;53.628;9.950;2023-07-31T06:35:06;3.20;;;2.27;;
26040;SDS011;13816;53.628;9.950;2023-07-31T06:41:19;4.83;;;1.90;;
26040;SDS011;13816;53.628;9.950;2023-07-31T06:43:47;4.30;;;2.63;;
26040;SDS011;13816;53.628;9.950;2023-07-31T06:46:37;3.30;;;2.57;;
26040;SDS011;13816;53.628;9.950;2023-07-31T06:52:44;2.83;;;2.57;;
26040;SDS011;13816;53.628;9.950;2023-07-31T06:55:19;3.00;;;2.60;;
26040;SDS011;13816;53.628;9.950;2023-07-31T06:58:06;2.80;;;2.60;;
26040;SDS011;13816;53.628;9.950;2023-07-31T07:00:34;2.43;;;2.23;;
26040;SDS011;13816;53.628;9.950;2023-07-31T07:03:34;3.97;;;2.60;;
26040;SDS011;13816;53.628;9.950;2023-07-31T07:06:41;6.20;;;2.60;;
26040;SDS011;13816;53.628;9.950;2023-07-31T07:09:27;3.20;;;2.57;;
26040;SDS011;13816;53.628;9.950;2023-07-31T07:12:23;2.90;;;2.47;;
26040;SDS011;13816;53.628;9.950;2023-07-31T07:14:54;4.53;;;2.40;;
26040;SDS011;13816;53.628;9.950;2023-07-31T07:17:25;3.57;;;2.80;;
26040;SDS011;13816;53.628;9.950;2023-07-31T07:20:19;3.97;;;2.17;;
26040;SDS011;13816;53.628;9.950;2023-07-31T07:22:56;3.53;;;2.37;;
26040;SDS011;13816;53.628;9.950;2023-07-31T07:29:02;3.00;;;2.33;;
26040;SDS011;13816;53.628;9.950;2023-07-31T07:31:46;5.53;;;2.20;;
26040;SDS011;13816;53.628;9.950;2023-07-31T07:34:48;2.20;;;2.00;;
26040;SDS011;13816;53.628;9.950;2023-07-31T07:40:36;2.30;;;1.50;;
26040;SDS011;13816;53.628;9.950;2023-07-31T07:47:14;1.83;;;1.63;;
26040;SDS011;13816;53.628;9.950;2023-07-31T07:50:09;4.57;;;1.67;;
26040;SDS011;13816;53.628;9.950;2023-07-31T07:53:15;2.73;;;2.00;;
26040;SDS011;13816;53.628;9.950;2023-07-31T07:59:43;4.60;;;1.73;;
26040;SDS011;13816;53.628;9.950;2023-07-31T08:02:48;1.93;;;1.73;;
26040;SDS011;13816;53.628;9.950;2023-07-31T08:05:39;2.13;;;1.93;;
26040;SDS011;13816;53.628;9.950;2023-07-31T08:08:17;2.20;;;1.93;;
26040;SDS011;13816;53.628;9.950;2023-07-31T08:11:21;1.83;;;1.70;;
26040;SDS011;13816;53.628;9.950;2023-07-31T08:14:14;2.20;;;2.00;;
26040;SDS011;13816;53.628;9.950;2023-07-31T08:17:22;3.40;;;2.30;;
26040;SDS011;13816;53.628;9.950;2023-07-31T08:20:26;2.17;;;1.97;;
26040;SDS011;13816;53.628;9.950;2023-07-31T08:23:21;2.53;;;2.10;;
26040;SDS011;13816;53.628;9.950;2023-07-31T08:26:34;2.43;;;2.23;;
26040;SDS011;13816;53.628;9.950;2023-07-31T08:29:23;2.37;;;1.90;;
26040;SDS011;13816;53.628;9.950;2023-07-31T08:32:05;3.67;;;2.30;;
26040;SDS011;13816;53.628;9.950;2023-07-31T08:38:05;4.67;;;2.00;;
26040;SDS011;13816;53.628;9.950;2023-07-31T08:40:53;2.13;;;1.70;;
26040;SDS011;13816;53.628;9.950;2023-07-31T08:43:21;2.30;;;1.80;;
26040;SDS011;13816;53.628;9.950;2023-07-31T08:45:49;3.33;;;1.87;;
26040;SDS011;13816;53.628;9.950;2023-07-31T08:48:18;2.23;;;2.03;;
26040;SDS011;13816;53.628;9.950;2023-07-31T08:50:46;2.67;;;1.73;;
26040;SDS011;13816;53.628;9.950;2023-07-31T08:53:13;5.10;;;1.97;;
26040;SDS011;13816;53.628;9.950;2023-07-31T08:55:41;2.20;;;1.90;;
26040;SDS011;13816;53.628;9.950;2023-07-31T08:58:08;1.80;;;1.70;;
26040;SDS011;13816;53.628;9.950;2023-07-31T09:00:36;1.63;;;1.53;;
26040;SDS011;13816;53.628;9.950;2023-07-31T09:03:17;2.50;;;1.63;;
26040;SDS011;13816;53.628;9.950;2023-07-31T09:05:46;1.83;;;1.20;;
26040;SDS011;13816;53.628;9.950;2023-07-31T09:08:14;1.87;;;1.40;;
26040;SDS011;13816;53.628;9.950;2023-07-31T09:10:45;2.63;;;1.77;;
26040;SDS011;13816;53.628;9.950;2023-07-31T09:13:13;2.10;;;1.30;;
26040;SDS011;13816;53.628;9.950;2023-07-31T09:15:43;1.90;;;1.60;;
26040;SDS011;13816;53.628;9.950;2023-07-31T09:18:11;5.87;;;1.30;;
26040;SDS011;13816;53.628;9.950;2023-07-31T09:20:38;4.30;;;1.30;;
26040;SDS011;13816;53.628;9.950;2023-07-31T09:25:34;1.60;;;1.50;;
26040;SDS011;13816;53.628;9.950;2023-07-31T09:28:08;3.33;;;1.63;;
26040;SDS011;13816;53.628;9.950;2023-07-31T09:33:12;1.80;;;1.40;;
26040;SDS011;13816;53.628;9.950;2023-07-31T09:35:39;1.83;;;1.30;;
26040;SDS011;13816;53.628;9.950;2023-07-31T09:38:11;4.90;;;1.50;;
26040;SDS011;13816;53.628;9.950;2023-07-31T09:40:39;2.40;;;1.23;;
26040;SDS011;13816;53.628;9.950;2023-07-31T09:43:07;3.50;;;1.37;;
26040;SDS011;13816;53.628;9.950;2023-07-31T09:45:40;1.43;;;1.03;;
26040;SDS011;13816;53.628;9.950;2023-07-31T09:48:08;3.13;;;1.77;;
26040;SDS011;13816;53.628;9.950;2023-07-31T09:50:37;1.60;;;1.30;;
26040;SDS011;13816;53.628;9.950;2023-07-31T09:53:06;1.30;;;1.20;;
26040;SDS011;13816;53.628;9.950;2023-07-31T09:55:33;2.40;;;1.40;;
26040;SDS011;13816;53.628;9.950;2023-07-31T09:58:05;1.30;;;1.20;;
26040;SDS011;13816;53.628;9.950;2023-07-31T10:00:33;1.77;;;1.33;;
26040;SDS011;13816;53.628;9.950;2023-07-31T10:03:10;2.30;;;1.40;;
26040;SDS011;13816;53.628;9.950;2023-07-31T10:05:39;1.37;;;1.27;;
26040;SDS011;13816;53.628;9.950;2023-07-31T10:08:08;1.70;;;1.30;;
26040;SDS011;13816;53.628;9.950;2023-07-31T10:10:36;2.77;;;1.60;;
26040;SDS011;13816;53.628;9.950;2023-07-31T10:13:04;1.93;;;1.60;;
26040;SDS011;13816;53.628;9.950;2023-07-31T10:15:32;2.57;;;1.60;;
26040;SDS011;13816;53.628;9.950;2023-07-31T10:18:01;2.80;;;1.50;;
26040;SDS011;13816;53.628;9.950;2023-07-31T10:20:29;3.00;;;1.80;;
26040;SDS011;13816;53.628;9.950;2023-07-31T10:22:57;2.17;;;1.47;;
26040;SDS011;13816;53.628;9.950;2023-07-31T10:25:28;2.43;;;1.30;;
26040;SDS011;13816;53.628;9.950;2023-07-31T10:27:56;4.10;;;1.40;;
26040;SDS011;13816;53.628;9.950;2023-07-31T10:30:25;3.10;;;1.70;;
26040;SDS011;13816;53.628;9.950;2023-07-31T10:32:53;1.47;;;1.37;;
26040;SDS011;13816;53.628;9.950;2023-07-31T10:35:20;1.40;;;1.00;;
26040;SDS011;13816;53.628;9.950;2023-07-31T10:37:51;1.70;;;1.50;;
26040;SDS011;13816;53.628;9.950;2023-07-31T10:40:20;1.93;;;1.47;;
26040;SDS011;13816;53.628;9.950;2023-07-31T10:42:51;1.30;;;1.10;;
26040;SDS011;13816;53.628;9.950;2023-07-31T10:48:01;1.40;;;1.30;;
26040;SDS011;13816;53.628;9.950;2023-07-31T10:50:29;1.20;;;1.00;;
26040;SDS011;13816;53.628;9.950;2023-07-31T10:52:59;2.70;;;1.27;;
26040;SDS011;13816;53.628;9.950;2023-07-31T10:55:31;1.37;;;1.27;;
26040;SDS011;13816;53.628;9.950;2023-07-31T10:58:06;5.43;;;1.00;;
26040;SDS011;13816;53.628;9.950;2023-07-31T11:00:36;1.20;;;1.10;;
26040;SDS011;13816;53.628;9.950;2023-07-31T11:03:05;1.63;;;1.10;;
26040;SDS011;13816;53.628;9.950;2023-07-31T11:05:43;4.17;;;1.30;;
26040;SDS011;13816;53.628;9.950;2023-07-31T11:10:42;1.60;;;1.27;;
26040;SDS011;13816;53.628;9.950;2023-07-31T11:13:10;1.20;;;1.00;;
26040;SDS011;13816;53.628;9.950;2023-07-31T11:15:37;1.50;;;1.10;;
26040;SDS011;13816;53.628;9.950;2023-07-31T11:18:05;3.87;;;1.10;;
26040;SDS011;13816;53.628;9.950;2023-07-31T11:20:35;1.50;;;1.17;;
26040;SDS011;13816;53.628;9.950;2023-07-31T11:23:03;3.50;;;1.20;;
26040;SDS011;13816;53.628;9.950;2023-07-31T11:25:31;1.83;;;1.33;;
26040;SDS011;13816;53.628;9.950;2023-07-31T11:28:05;4.00;;;1.40;;
26040;SDS011;13816;53.628;9.950;2023-07-31T11:30:33;1.30;;;1.10;;
26040;SDS011;13816;53.628;9.950;2023-07-31T11:33:04;2.37;;;1.27;;
26040;SDS011;13816;53.628;9.950;2023-07-31T11:35:36;1.70;;;1.30;;
26040;SDS011;13816;53.628;9.950;2023-07-31T11:38:03;1.83;;;0.90;;
26040;SDS011;13816;53.628;9.950;2023-07-31T11:40:31;1.70;;;1.20;;
26040;SDS011;13816;53.628;9.950;2023-07-31T11:43:03;1.57;;;1.00;;
26040;SDS011;13816;53.628;9.950;2023-07-31T11:45:31;0.93;;;0.70;;
26040;SDS011;13816;53.628;9.950;2023-07-31T11:47:59;1.33;;;1.10;;
26040;SDS011;13816;53.628;9.950;2023-07-31T11:50:26;4.33;;;1.20;;
26040;SDS011;13816;53.628;9.950;2023-07-31T11:52:57;1.20;;;1.00;;
26040;SDS011;13816;53.628;9.950;2023-07-31T11:55:26;2.93;;;1.20;;
26040;SDS011;13816;53.628;9.950;2023-07-31T11:57:54;2.13;;;0.90;;
26040;SDS011;13816;53.628;9.950;2023-07-31T12:00:22;0.90;;;0.80;;
26040;SDS011;13816;53.628;9.950;2023-07-31T12:02:50;1.80;;;1.20;;
26040;SDS011;13816;53.628;9.950;2023-07-31T12:05:18;1.10;;;1.00;;
26040;SDS011;13816;53.628;9.950;2023-07-31T12:07:50;1.73;;;1.23;;
26040;SDS011;13816;53.628;9.950;2023-07-31T12:12:59;1.33;;;1.10;;
26040;SDS011;13816;53.628;9.950;2023-07-31T12:15:34;1.70;;;0.90;;
26040;SDS011;13816;53.628;9.950;2023-07-31T12:18:05;1.40;;;0.90;;
26040;SDS011;13816;53.628;9.950;2023-07-31T12:20:33;1.77;;;1.20;;
26040;SDS011;13816;53.628;9.950;2023-07-31T12:23:01;0.80;;;0.80;;
26040;SDS011;13816;53.628;9.950;2023-07-31T12:25:30;1.47;;;0.87;;
26040;SDS011;13816;53.628;9.950;2023-07-31T12:27:57;1.10;;;0.80;;
26040;SDS011;13816;53.628;9.950;2023-07-31T12:30:34;2.73;;;0.70;;
26040;SDS011;13816;53.628;9.950;2023-07-31T12:33:14;1.27;;;0.93;;
26040;SDS011;13816;53.628;9.950;2023-07-31T12:35:43;1.67;;;1.13;;
26040;SDS011;13816;53.628;9.950;2023-07-31T12:38:11;2.10;;;1.27;;
26040;SDS011;13816;53.628;9.950;2023-07-31T12:40:40;1.40;;;1.07;;
26040;SDS011;13816;53.628;9.950;2023-07-31T12:43:07;2.90;;;1.30;;
26040;SDS011;13816;53.628;9.950;2023-07-31T12:45:35;2.73;;;1.10;;
26040;SDS011;13816;53.628;9.950;2023-07-31T12:48:03;1.50;;;0.90;;
26040;SDS011;13816;53.628;9.950;2023-07-31T12:50:30;1.83;;;1.30;;
26040;SDS011;13816;53.628;9.950;2023-07-31T12:52:58;1.30;;;1.10;;
26040;SDS011;13816;53.628;9.950;2023-07-31T12:55:25;2.60;;;1.00;;
26040;SDS011;13816;53.628;9.950;2023-07-31T12:57:55;1.70;;;1.40;;
26040;SDS011;13816;53.628;9.950;2023-07-31T13:00:22;1.43;;;1.03;;
26040;SDS011;13816;53.628;9.950;2023-07-31T13:02:50;1.27;;;0.90;;
26040;SDS011;13816;53.628;9.950;2023-07-31T13:05:17;1.23;;;0.93;;
26040;SDS011;13816;53.628;9.950;2023-07-31T13:07:47;1.83;;;1.00;;
26040;SDS011;13816;53.628;9.950;2023-07-31T13:10:17;1.10;;;0.90;;
26040;SDS011;13816;53.628;9.950;2023-07-31T13:12:44;0.80;;;0.80;;
26040;SDS011;13816;53.628;9.950;2023-07-31T13:15:12;2.13;;;1.10;;
26040;SDS011;13816;53.628;9.950;2023-07-31T13:17:39;1.00;;;0.90;;
26040;SDS011;13816;53.628;9.950;2023-07-31T13:20:07;2.13;;;0.90;;
26040;SDS011;13816;53.628;9.950;2023-07-31T13:22:35;1.17;;;0.87;;
26040;SDS011;13816;53.628;9.950;2023-07-31T13:25:02;1.13;;;1.00;;
26040;SDS011;13816;53.628;9.950;2023-07-31T13:27:30;1.93;;;0.90;;
26040;SDS011;13816;53.628;9.950;2023-07-31T13:29:58;7.10;;;0.90;;
26040;SDS011;13816;53.628;9.950;2023-07-31T13:32:25;1.33;;;1.00;;
26040;SDS011;13816;53.628;9.950;2023-07-31T13:34:53;2.40;;;0.80;;
26040;SDS011;13816;53.628;9.950;2023-07-31T13:37:20;1.40;;;1.10;;
26040;SDS011;13816;53.628;9.950;2023-07-31T13:39:48;1.10;;;0.90;;
26040;SDS011;13816;53.628;9.950;2023-07-31T13:42:15;1.77;;;1.03;;
26040;SDS011;13816;53.628;9.950;2023-07-31T13:44:43;2.80;;;1.07;;
26040;SDS011;13816;53.628;9.950;2023-07-31T13:47:10;2.83;;;1.40;;
26040;SDS011;13816;53.628;9.950;2023-07-31T13:49:37;1.20;;;1.07;;
26040;SDS011;13816;53.628;9.950;2023-07-31T13:52:05;1.60;;;1.10;;
26040;SDS011;13816;53.628;9.950;2023-07-31T13:54:33;2.83;;;1.63;;
26040;SDS011;13816;53.628;9.950;2023-07-31T13:57:00;1.77;;;1.20;;
26040;SDS011;13816;53.628;9.950;2023-07-31T13:59:28;2.10;;;1.00;;
26040;SDS011;13816;53.628;9.950;2023-07-31T14:01:55;2.10;;;1.00;;
26040;SDS011;13816;53.628;9.950;2023-07-31T14:04:22;0.90;;;0.80;;
26040;SDS011;13816;53.628;9.950;2023-07-31T14:06:50;1.93;;;0.80;;
26040;SDS011;13816;53.628;9.950;2023-07-31T14:09:17;1.23;;;0.60;;
26040;SDS011;13816;53.628;9.950;2023-07-31T14:11:45;1.23;;;0.83;;
26040;SDS011;13816;53.628;9.950;2023-07-31T14:14:12;1.30;;;0.83;;
26040;SDS011;13816;53.628;9.950;2023-07-31T14:16:40;1.40;;;0.60;;
26040;SDS011;13816;53.628;9.950;2023-07-31T14:19:07;1.60;;;1.00;;
26040;SDS011;13816;53.628;9.950;2023-07-31T14:21:35;1.60;;;1.03;;
26040;SDS011;13816;53.628;9.950;2023-07-31T14:24:03;0.80;;;0.70;;
26040;SDS011;13816;53.628;9.950;2023-07-31T14:26:30;1.10;;;0.80;;
26040;SDS011;13816;53.628;9.950;2023-07-31T14:28:58;1.93;;;0.80;;
26040;SDS011;13816;53.628;9.950;2023-07-31T14:31:25;3.53;;;1.20;;
26040;SDS011;13816;53.628;9.950;2023-07-31T14:33:53;2.30;;;1.40;;
26040;SDS011;13816;53.628;9.950;2023-07-31T14:36:23;1.53;;;1.20;;
26040;SDS011;13816;53.628;9.950;2023-07-31T14:38:50;1.83;;;1.30;;
26040;SDS011;13816;53.628;9.950;2023-07-31T14:41:18;1.33;;;1.03;;
26040;SDS011;13816;53.628;9.950;2023-07-31T14:43:45;2.53;;;0.83;;
26040;SDS011;13816;53.628;9.950;2023-07-31T14:46:13;1.20;;;0.77;;
26040;SDS011;13816;53.628;9.950;2023-07-31T14:48:41;1.53;;;0.97;;
26040;SDS011;13816;53.628;9.950;2023-07-31T14:51:08;1.40;;;0.90;;
26040;SDS011;13816;53.628;9.950;2023-07-31T14:53:35;2.17;;;1.17;;
26040;SDS011;13816;53.628;9.950;2023-07-31T14:56:03;1.23;;;1.00;;
26040;SDS011;13816;53.628;9.950;2023-07-31T14:58:31;0.90;;;0.77;;
26040;SDS011;13816;53.628;9.950;2023-07-31T15:00:59;1.77;;;1.33;;
26040;SDS011;13816;53.628;9.950;2023-07-31T15:03:26;3.40;;;1.60;;
26040;SDS011;13816;53.628;9.950;2023-07-31T15:05:53;1.93;;;1.27;;
26040;SDS011;13816;53.628;9.950;2023-07-31T15:08:21;1.93;;;1.20;;
26040;SDS011;13816;53.628;9.950;2023-07-31T15:10:48;1.30;;;0.90;;
26040;SDS011;13816;53.628;9.950;2023-07-31T15:13:16;1.10;;;0.87;;
26040;SDS011;13816;53.628;9.950;2023-07-31T15:15:43;1.47;;;1.20;;
26040;SDS011;13816;53.628;9.950;2023-07-31T15:18:11;4.80;;;1.20;;
26040;SDS011;13816;53.628;9.950;2023-07-31T15:20:38;1.23;;;1.13;;
26040;SDS011;13816;53.628;9.950;2023-07-31T15:23:05;1.00;;;0.90;;
26040;SDS011;13816;53.628;9.950;2023-07-31T15:25:33;1.27;;;1.00;;
26040;SDS011;13816;53.628;9.950;2023-07-31T15:28:01;1.53;;;0.93;;
26040;SDS011;13816;53.628;9.950;2023-07-31T15:30:29;1.27;;;0.87;;
26040;SDS011;13816;53.628;9.950;2023-07-31T15:32:56;1.80;;;1.40;;
26040;SDS011;13816;53.628;9.950;2023-07-31T15:35:24;2.43;;;1.33;;
26040;SDS011;13816;53.628;9.950;2023-07-31T15:37:52;1.30;;;1.00;;
26040;SDS011;13816;53.628;9.950;2023-07-31T15:40:19;3.90;;;1.10;;
26040;SDS011;13816;53.628;9.950;2023-07-31T15:42:47;1.73;;;1.37;;
26040;SDS011;13816;53.628;9.950;2023-07-31T15:45:14;2.07;;;1.33;;
26040;SDS011;13816;53.628;9.950;2023-07-31T15:47:42;1.00;;;0.90;;
26040;SDS011;13816;53.628;9.950;2023-07-31T15:50:09;2.50;;;1.47;;
26040;SDS011;13816;53.628;9.950;2023-07-31T15:52:37;2.60;;;1.40;;
26040;SDS011;13816;53.628;9.950;2023-07-31T15:55:04;6.83;;;1.70;;
26040;SDS011;13816;53.628;9.950;2023-07-31T15:57:32;1.70;;;1.57;;
26040;SDS011;13816;53.628;9.950;2023-07-31T15:59:59;1.40;;;1.30;;
26040;SDS011;13816;53.628;9.950;2023-07-31T16:02:33;4.17;;;1.50;;
26040;SDS011;13816;53.628;9.950;2023-07-31T16:05:01;1.90;;;1.60;;